首页
METAR-TAF:

METAR-TAF

机场 :

西班牙港, 特立尼达岛, 千里達及托巴哥

皮阿尔科国际机场

纬度: 10-37N, 经度: 061-21W, 海拔: 12米

当前天气观测

该预报发布于45分钟前的06:00 UTC
风速5节,风向
温度 24°C
湿度 89%
气压 1013 hPa
能见度10公里或以上
散云层高于1500英尺
小阵雨

METAR: TTPP 200600Z 08005KT 9999 -SHRA SCT015 24/22 Q1013 NOSIG

时间: 02:45 (06:45 UTC)

预报

该预报发布于2小时和45分钟前的04:00 UTC
预报有效从20日的 06点(UTC)到 21日的 06点(UTC)
风速5节,风向
能见度10公里或以上
少量云层高于1600英尺
短暂存在
从 20日的 06点(UTC)到 20日的 14点(UTC)
能見度: 9000
散云层高于1600英尺
阵雨
成为
从 20日的 12点(UTC)到 20日的 14点(UTC)
风速12节,风向东转东南
散云层高于2000英尺

TAF: TTPP 200400Z 2006/2106 10005KT 9999 FEW016 TEMPO 2006/2014 9000 SHRA SCT016 BECMG 2012/2014 11012KT SCT020

超过4000个机场的气象观测和天气预报(METAR&TAF报告)。

可查询的气象台以黄色和红色小点在地图上表示。

将鼠标移到小点上方,可查看气象台名称。

然后点击查看天气观测和预报。

如需切换地图:点击带黑十字的绿色按钮放大地图;点击带横线的绿色按钮缩小地图;或者点击绿色箭头查看邻近地区的地图。


METAR-TAF: